Forside
METAR-TAF:

METAR-TAF

Lufthavne :

Zielona Góra, Polen

Breddekreds: 52-08-19N, længdekreds: 015-47-55E, højde: 59 m

Aktuelle vejr

Denne rapport blev lavet for 31 minutter siden, kl. 07:30 UTC
Vind 3 kt fra øst, varierende mellem nord og sydsydøst
Temperatur 21°C
Fugtighed 78%
Tryk 1020 hPa
Sigt 10 km eller mere
ingen skyer under 1500m og ingen cumulonimbus

METAR: EPZG 260730Z 10003KT 010V160 CAVOK 21/17 Q1020

Tid: 10:01 (08:01 UTC)

Vejrudsigter

Denne rapport blev lavet for 2 timer og 31 minutter siden, kl. 05:30 UTC
Foreløbig gælder fra 26 på 06 UTC til 26 på 15 UTC
Vind 4 kt fra sydøst
Sigt 10 km eller mere
ingen skyer under 1500m og ingen cumulonimbus
Midlertidig
fra 26 på 11 UTC til 26 på 15 UTC
Vind 17 kt fra varierende retninger med vindstød på up til 30 kt
Sigt: 2500 m
Brudte skyer i en højde af 4500 ft, Cumulonimbus.
tordenbyger, regn,

TAF: EPZG 260530Z 2606/2615 13004KT CAVOK TEMPO 2611/2615 VRB17G30KT 2500 TSRA BKN045CB

Vejrobservationer og prognoser fra mere end 4000 lufthavne (METAR og TAF).

De gule og røde prikker repræsenterer de meteorologiske stationer.

Flyt musen over at se navnet på stationen.

Så klik over at se vejr observationer og prognoser.

At skifte det kort: Klik på de grønne knapper med et sort kors for at zoome ind; på den grønne knap med en bindestreg for at zoome ud; eller på de grønne pile for tilstødende kort.


METAR-TAF: